x

Buoy I01 - Eastern Maine Shelf (44034) Wave Buoy

1:04 - Sat 19th Aug 2017 All times are EDT. -4 hours from GMT.

  • Sig Wave height 4.3ft
  • Peak Period 5s
  • Wind
    20mph, 22mph gusts
  • Sea Temp 52°f
  • Luft Temp 57°f
  • Sea Pressure 1010.8mb
  • Buoy I01 - Eastern Maine Shelf
  • Buoy I01 - Eastern Maine Shelf

More Historic Weather Station data

Upgrade to MSW Pro to gain access to the past 30 days of data for over 8000 Wavebouys and Weather Stations around the globe.

Join

Comparision Forecast

View Surf forecast
   
Sa 08/19 1:04 4.5ft 5s 20 22 mph 1010.8mb 52f 57f
12:04 4.5ft 5s 22 25 mph 1011.4mb 53f 58f
Fr 08/18 11:04 3ft 4s 20 22 mph 1012.1mb 53f 58f
10:04 2.5ft 6s 16 20 mph 1012.9mb 53f 57f
9:04 2.5ft 8s 11 13 mph 1013.4mb 53f 56f
8:04 2.5ft 8s 9 11 mph 1013.8mb 53f 56f
7:04 2ft 6s 9 9 mph 1013.8mb 53f 56f
6:04 2.5ft 8s 9 11 mph 1013.9mb 53f 57f
5:04 2.5ft 8s 4 4 mph 1014.5mb 53f 56f
4:04 2.5ft 8s 9 9 mph 1014.6mb 53f 56f
2:04 2.5ft 8s 9 9 mph 1015.4mb 53f 56f
1:04 2ft 8s 9 9 mph 1015.7mb 53f 56f
12:04 2ft 8s 4 7 mph 1015.9mb 53f 56f
11:04 2ft 11s 9 9 mph 1015.4mb 53f 56f
10:04 2ft 11s 7 7 mph 1015.4mb 53f 57f
9:04 2.5ft 11s 7 7 mph 1015.3mb 53f 56f
8:04 2.5ft 8s 7 7 mph 1015mb 53f 56f
7:04 2.5ft 8s 4 7 mph 1015.1mb 52f 55f
6:04 2.5ft 8s 7 9 mph 1014.8mb 52f 55f
5:04 2.5ft 8s 4 4 mph 1014.8mb 52f 56f
4:04 3ft 8s 2 4 mph 1014.7mb 53f 57f
3:04 2.5ft 8s 4 4 mph 1014.7mb 54f 58f
2:04 2.5ft 11s 4 7 mph 1015.1mb 55f 58f
1:04 2.5ft 8s 7 7 mph 1015.1mb 55f 58f
12:04 3.5ft 11s 4 7 mph 1014.7mb 55f 58f
Do 08/17 11:04 2.5ft 11s 9 11 mph 1014.7mb 55f 58f
10:04 2.5ft 11s 4 7 mph 1014.3mb 56f 58f
9:04 4ft 11s 9 11 mph 1013.8mb 55f 58f
8:04 4ft 11s 11 13 mph 1013mb 55f 59f
7:04 4.5ft 11s 11 13 mph 1012.7mb 55f 58f
6:04 3.5ft 8s 16 16 mph 1011.9mb 54f 59f
5:04 2.5ft 4s 16 18 mph 1011.8mb 54f 60f
4:04  -   -   -  mph - 50f -
2:04 4.5ft 11s 16 18 mph 1012.6mb 54f 59f
1:04 4.5ft 11s 18 20 mph 1012.8mb 54f 60f
12:04 4.5ft 11s 13 16 mph 1013.5mb 53f 58f
11:04 3.5ft 11s 16 20 mph 1013.8mb 53f 58f
10:04 3ft 11s 11 13 mph 1014.3mb 53f 57f
9:04 3.5ft 11s 9 11 mph 1014.2mb 54f 57f
8:04 3.5ft 11s 9 11 mph 1014.3mb 53f 57f
7:04 4ft 11s 9 9 mph 1014mb 54f 57f
6:04 3.5ft 8s 4 7 mph 1013.5mb 54f 56f
5:04 5.5ft 16s 7 9 mph 1013.4mb 54f 57f
4:04 5ft 16s 9 11 mph 1013.2mb 54f 57f
3:04 6ft 16s 4 7 mph 1013.5mb 55f 58f
2:04  -   -  9 11 mph 1013.4mb 55f 59f
1:04  -   -  9 11 mph 1013.7mb 55f 58f
12:04 4.5ft 11s 9 11 mph 1013.8mb 55f 59f
Mi 08/16 11:04 3.5ft 11s 9 9 mph 1013.7mb 55f 60f
10:04 3.5ft 11s 7 9 mph 1013.4mb 55f 59f
9:04 1.6ft 5s 11 13 mph 1012.6mb 55f 62f
8:04 4ft 11s 9 9 mph 1011.8mb 54f 60f
7:04 1.6ft 5s 7 9 mph 1011mb 56f 63f
6:04 3ft 8s 7 9 mph 1010.5mb 56f 64f
5:04 1.6ft 5s 11 11 mph 1010.1mb 55f 64f
4:04 2ft 5s 9 11 mph 1010.1mb 54f 65f
3:04 1ft 3s 9 9 mph 1010mb 54f 65f
2:04 2ft 5s 7 9 mph 1010.2mb 56f 67f
1:04 2.5ft 5s 4 4 mph 1010.5mb 56f 65f
12:04 3ft 11s 4 7 mph 1010.7mb 55f 63f
11:04 3ft 11s 4 4 mph 1010.8mb 54f 59f
10:04 3ft 5s 4 9 mph 1010.8mb 54f 59f
9:04 3ft 5s 7 7 mph 1010.7mb 53f 56f
8:04 3ft 5s 4 7 mph 1010.5mb 54f 56f
7:04 2.5ft 6s 7 7 mph 1009.9mb 54f 56f
6:04 3ft 11s 4 4 mph 1009.6mb 54f 56f
5:04 3ft 11s 4 4 mph 1009.2mb 54f 56f
4:04 3ft 11s 7 9 mph 1009.2mb 54f 57f
3:04 2.5ft 11s 4 7 mph 1009.1mb 54f 57f
2:04 2.5ft 11s 11 13 mph 1009.1mb 54f 58f
1:04 2.5ft 6s 7 9 mph 1009.4mb 54f 57f
12:04 1.6ft 5s 11 13 mph 1010.2mb 54f 59f
Di 08/15 11:04 2.5ft 8s 9 11 mph 1010.7mb 54f 59f
10:04 2ft 8s 4 7 mph 1011mb 54f 59f
9:04 2.5ft 6s 9 11 mph 1011mb 55f 59f
8:04 2ft 6s 7 9 mph 1011mb 54f 59f
7:04 2.5ft 8s 9 9 mph 1011.1mb 53f 59f
6:04 2.5ft 8s 9 9 mph 1011.2mb 55f 59f
5:04 2.5ft 6s 7 7 mph 1011.8mb 54f 59f
4:04 2.5ft 8s 7 7 mph 1012.1mb 56f 60f
3:04 2.5ft 6s 4 4 mph 1012.6mb 55f 61f
2:04 2.5ft 6s 4 4 mph 1012.7mb 55f 60f
1:04 2.5ft 6s 4 4 mph 1013.2mb 56f 61f
12:04 2.5ft 8s 2 4 mph 1013.6mb 55f 60f
11:04 2.5ft 8s 2 4 mph 1014mb 55f 59f
10:04 2.5ft 8s 7 7 mph 1014mb 55f 58f
9:04 2.5ft 8s 4 7 mph 1014mb 55f 58f
8:04 2.5ft 8s 4 7 mph 1014.1mb 54f 58f